Time;durP1;ratioP1;P1;durP2;ratioP2;P2;SDS_P1;SDS_P2;PMS_P1;PMS_P2;Temp;Humidity;BMP_temperature;BMP_pressure;BME280_temperature;BME280_humidity;BME280_pressure;Samples;Min_cycle;Max_cycle;Signal;HPM_P1;HPM_P2
2023/10/09 00:01:17;;;;;;;4.18;1.80;;;12.10;99.90;;;;;;4923267;29;20190;-88
2023/10/09 00:03:53;;;;;;;2.53;1.45;;;12.00;99.90;;;;;;4909209;29;20521;-88
2023/10/09 00:06:24;;;;;;;4.15;1.70;;;12.10;99.90;;;;;;4923122;29;20178;-88
2023/10/09 00:08:54;;;;;;;4.50;1.85;;;12.10;99.90;;;;;;4921574;29;20186;-88
2023/10/09 00:11:20;;;;;;;4.90;1.77;;;12.00;99.90;;;;;;4919108;29;20186;-88
2023/10/09 00:13:57;;;;;;;2.72;1.40;;;12.00;99.90;;;;;;4918487;29;20507;-88
2023/10/09 00:16:34;;;;;;;5.25;1.55;;;12.00;99.90;;;;;;4919838;29;20218;-88
2023/10/09 00:19:17;;;;;;;4.18;1.40;;;12.00;99.90;;;;;;4919516;29;20189;-89
2023/10/09 00:21:47;;;;;;;6.82;1.63;;;12.00;99.90;;;;;;4923086;29;20257;-89
2023/10/09 00:24:25;;;;;;;3.45;1.60;;;12.10;99.90;;;;;;4925579;29;20322;-87
2023/10/09 00:26:55;;;;;;;3.47;1.38;;;12.10;99.90;;;;;;4925610;29;20625;-87
2023/10/09 00:32:13;;;;;;;3.83;1.40;;;12.10;99.90;;;;;;4982339;28;20247;-86
2023/10/09 00:34:42;;;;;;;2.85;1.40;;;12.10;99.90;;;;;;4985058;28;20156;-87
2023/10/09 00:37:16;;;;;;;2.17;1.58;;;12.10;99.90;;;;;;4987332;28;20206;-87
2023/10/09 00:39:43;;;;;;;6.00;2.00;;;12.10;99.90;;;;;;4964604;28;20180;-87
2023/10/09 00:42:29;;;;;;;6.25;1.58;;;12.00;99.90;;;;;;4980152;28;20195;-87
2023/10/09 00:44:56;;;;;;;3.13;1.48;;;12.00;99.90;;;;;;4979694;28;20173;-89
2023/10/09 00:47:33;;;;;;;2.85;1.40;;;12.00;99.90;;;;;;4980923;28;20227;-90
2023/10/09 00:53:08;;;;;;;3.70;1.20;;;12.00;99.90;;;;;;4980518;28;20191;-87
2023/10/09 00:56:03;;;;;;;5.15;1.60;;;12.00;99.90;;;;;;4981095;28;20272;-87
2023/10/09 00:58:31;;;;;;;2.63;1.30;;;12.00;99.90;;;;;;4984658;28;20196;-87
2023/10/09 01:00:59;;;;;;;4.60;1.52;;;12.00;99.90;;;;;;4980590;28;20190;-87
2023/10/09 01:03:28;;;;;;;4.57;1.60;;;12.00;99.90;;;;;;4979161;28;20607;-87
2023/10/09 01:06:16;;;;;;;6.28;1.58;;;12.00;99.90;;;;;;4994989;28;20193;-86
2023/10/09 01:08:56;;;;;;;5.18;1.55;;;12.00;99.90;;;;;;4992349;28;20177;-86
2023/10/09 01:11:30;;;;;;;5.40;1.70;;;12.00;99.90;;;;;;4981527;28;20191;-86
2023/10/09 01:16:34;;;;;;;5.10;2.05;;;12.00;99.90;;;;;;4996085;28;20217;-86
2023/10/09 01:19:00;;;;;;;3.35;1.60;;;12.00;99.90;;;;;;4979423;28;20239;-86
2023/10/09 01:21:31;;;;;;;2.65;1.42;;;12.00;99.90;;;;;;4980839;28;20223;-87
2023/10/09 01:24:03;;;;;;;3.90;1.45;;;12.10;99.90;;;;;;4995971;28;20179;-86
2023/10/09 01:26:44;;;;;;;2.88;1.40;;;12.10;99.90;;;;;;4980418;23;20238;-86
2023/10/09 01:29:21;;;;;;;4.43;1.55;;;12.00;99.90;;;;;;4993859;23;20232;-87
2023/10/09 01:32:04;;;;;;;3.13;1.48;;;12.10;99.90;;;;;;4975568;28;20192;-86
2023/10/09 01:34:49;;;;;;;4.78;1.90;;;12.10;99.90;;;;;;4978493;29;20232;-86
2023/10/09 01:37:18;;;;;;;2.75;1.50;;;12.10;99.90;;;;;;4974327;29;20181;-85
2023/10/09 01:39:51;;;;;;;4.85;1.65;;;12.00;99.90;;;;;;4978406;29;20171;-86
2023/10/09 01:42:45;;;;;;;6.82;1.60;;;12.00;99.90;;;;;;4979306;29;20181;-86
2023/10/09 01:45:26;;;;;;;5.20;1.67;;;12.00;99.90;;;;;;4963159;29;20181;-86
2023/10/09 01:48:04;;;;;;;3.67;1.50;;;12.10;99.90;;;;;;4975652;29;20257;-87
2023/10/09 01:50:35;;;;;;;2.40;1.33;;;12.10;99.90;;;;;;4979320;29;20157;-87
2023/10/09 01:53:08;;;;;;;2.15;1.30;;;12.00;99.90;;;;;;4977085;29;20269;-86
2023/10/09 01:55:37;;;;;;;3.13;1.65;;;12.00;99.90;;;;;;4981212;28;20269;-86
2023/10/09 02:00:49;;;;;;;2.25;1.40;;;12.00;99.90;;;;;;4970832;28;20182;-86
2023/10/09 02:03:16;;;;;;;4.70;1.80;;;12.00;99.90;;;;;;4960108;29;20174;-86
2023/10/09 02:05:42;;;;;;;2.67;1.33;;;12.00;99.90;;;;;;4960622;29;20154;-86
2023/10/09 02:08:08;;;;;;;3.10;1.50;;;12.00;99.90;;;;;;4960132;29;20181;-86
2023/10/09 02:10:37;;;;;;;5.93;1.85;;;12.00;99.90;;;;;;4959559;29;20162;-87
2023/10/09 02:13:20;;;;;;;4.03;1.42;;;12.00;99.90;;;;;;4957627;29;20187;-93
2023/10/09 02:26:26;;;;;;;2.47;1.33;;;11.90;99.90;;;;;;4944617;29;20201;-96
2023/10/09 02:29:04;;;;;;;5.95;1.90;;;11.80;99.90;;;;;;4954803;29;20224;-88
2023/10/09 02:31:35;;;;;;;5.63;1.60;;;11.80;99.90;;;;;;4963033;28;20192;-96
2023/10/09 02:34:10;;;;;;;3.22;1.67;;;11.80;99.90;;;;;;4964566;28;20176;-96
2023/10/09 02:36:49;;;;;;;5.38;1.77;;;11.70;99.90;;;;;;4992603;28;20199;-91
2023/10/09 02:39:28;;;;;;;4.57;1.70;;;11.70;99.90;;;;;;4962724;28;20177;-95
2023/10/09 02:42:01;;;;;;;3.17;1.80;;;11.70;99.90;;;;;;4966297;28;20172;-96
2023/10/09 02:44:34;;;;;;;5.50;2.13;;;11.70;99.90;;;;;;4967343;28;20183;-95
2023/10/09 02:47:05;;;;;;;7.50;2.17;;;11.70;99.90;;;;;;4963916;28;20219;-96
2023/10/09 02:49:31;;;;;;;2.80;1.70;;;11.70;99.90;;;;;;4961908;28;20176;-96
2023/10/09 02:52:06;;;;;;;3.17;1.80;;;11.80;99.90;;;;;;4961346;28;20181;-95
2023/10/09 02:54:35;;;;;;;3.42;1.58;;;11.80;99.90;;;;;;4962812;28;20611;-93
2023/10/09 02:57:07;;;;;;;3.67;1.73;;;11.80;99.90;;;;;;4963571;28;20274;-95
2023/10/09 02:59:34;;;;;;;5.15;2.00;;;11.70;99.90;;;;;;4979231;28;20185;-96
2023/10/09 03:02:12;;;;;;;5.32;1.63;;;11.80;99.90;;;;;;4977859;28;20184;-96
2023/10/09 03:04:39;;;;;;;4.68;1.70;;;11.70;99.90;;;;;;4962306;28;20180;-94
2023/10/09 03:07:05;;;;;;;4.05;1.73;;;11.70;99.90;;;;;;4979500;28;20208;-94
2023/10/09 03:09:32;;;;;;;2.75;1.60;;;11.70;99.90;;;;;;4966455;28;20184;-96
2023/10/09 03:12:13;;;;;;;3.92;1.95;;;11.60;99.90;;;;;;4983033;28;20172;-92
2023/10/09 03:14:41;;;;;;;5.47;1.77;;;11.60;99.90;;;;;;4965712;28;20200;-96
2023/10/09 03:17:11;;;;;;;3.80;1.98;;;11.60;99.90;;;;;;4961638;28;20667;-94
2023/10/09 03:19:37;;;;;;;3.58;1.60;;;11.60;99.90;;;;;;4966773;28;20249;-87
2023/10/09 03:22:09;;;;;;;3.35;1.75;;;11.60;99.90;;;;;;4978361;28;20204;-94
2023/10/09 03:24:36;;;;;;;4.57;1.45;;;11.60;99.90;;;;;;4943854;29;20181;-90
2023/10/09 03:27:05;;;;;;;6.40;1.75;;;11.60;99.90;;;;;;4940593;29;20177;-90
2023/10/09 03:29:31;;;;;;;4.38;1.83;;;11.60;99.90;;;;;;4942192;29;20233;-87
2023/10/09 03:31:56;;;;;;;5.93;1.92;;;11.60;99.90;;;;;;4960970;28;20188;-87
2023/10/09 03:34:26;;;;;;;5.20;1.58;;;11.60;99.90;;;;;;4941242;29;20189;-89
2023/10/09 03:37:03;;;;;;;7.13;2.53;;;11.50;99.90;;;;;;4968048;28;20258;-87
2023/10/09 03:42:05;;;;;;;4.68;1.30;;;11.50;99.90;;;;;;4976522;28;20615;-87
2023/10/09 03:44:39;;;;;;;2.92;1.27;;;11.60;99.90;;;;;;4959053;28;20619;-86
2023/10/09 03:47:05;;;;;;;2.33;1.30;;;11.60;99.90;;;;;;4976014;28;20564;-86
2023/10/09 03:49:31;;;;;;;2.20;1.30;;;11.60;99.90;;;;;;4958681;28;20623;-86
2023/10/09 03:51:59;;;;;;;2.92;1.38;;;11.60;99.90;;;;;;4958137;28;20184;-89
2023/10/09 03:54:25;;;;;;;3.42;1.25;;;11.60;99.90;;;;;;4958420;28;20192;-89
2023/10/09 03:56:50;;;;;;;2.40;1.70;;;11.60;99.90;;;;;;4975885;28;20208;-86
2023/10/09 03:59:20;;;;;;;3.75;1.55;;;11.60;99.90;;;;;;4960039;28;20188;-90
2023/10/09 04:01:53;;;;;;;6.25;1.73;;;11.60;99.90;;;;;;4982026;28;20715;-86
2023/10/09 04:04:22;;;;;;;2.72;1.60;;;11.50;99.90;;;;;;4963251;28;20165;-87
2023/10/09 04:06:51;;;;;;;3.35;1.52;;;11.50;99.90;;;;;;4960610;28;20215;-89
2023/10/09 04:14:57;;;;;;;3.78;1.52;;;11.60;99.90;;;;;;4958295;28;20525;-93
2023/10/09 04:22:49;;;;;;;5.35;1.33;;;11.70;99.90;;;;;;4982486;28;20195;-87
2023/10/09 04:25:40;;;;;;;5.72;1.70;;;11.70;99.90;;;;;;4964102;28;20280;-85
2023/10/09 04:28:09;;;;;;;2.83;1.55;;;11.70;99.90;;;;;;4977905;28;20157;-85
2023/10/09 04:30:46;;;;;;;5.43;1.80;;;11.70;99.90;;;;;;4964942;28;20208;-85
2023/10/09 04:38:59;;;;;;;7.25;1.75;;;11.60;99.90;;;;;;4964867;28;20620;-86
2023/10/09 04:41:27;;;;;;;4.45;1.67;;;11.60;99.90;;;;;;4939058;29;20180;-84
2023/10/09 04:47:18;;;;;;;3.95;1.70;;;11.60;99.90;;;;;;4956021;29;20171;-84
2023/10/09 05:03:12;;;;;;;4.47;1.75;;;11.60;99.90;;;;;;4975591;28;20177;-93
2023/10/09 05:16:18;;;;;;;4.68;1.75;;;11.60;99.90;;;;;;4978527;28;20631;-87
2023/10/09 05:18:55;;;;;;;2.85;1.70;;;11.70;99.90;;;;;;4961368;28;20184;-86
2023/10/09 05:22:07;;;;;;;2.65;1.70;;;11.60;99.90;;;;;;4978552;28;20194;-84
2023/10/09 05:32:05;;;;;;;5.30;1.85;;;11.70;99.90;;;;;;4939989;28;20665;-86
2023/10/09 05:37:17;;;;;;;4.20;1.73;;;11.70;99.90;;;;;;4939654;29;20237;-86
2023/10/09 05:42:42;;;;;;;3.58;1.77;;;11.70;99.90;;;;;;4939694;29;20166;-89
2023/10/09 05:47:53;;;;;;;4.03;1.52;;;11.70;99.90;;;;;;4939233;29;20170;-85
2023/10/09 06:06:33;;;;;;;3.03;1.90;;;11.70;99.90;;;;;;4958448;29;20204;-87
2023/10/09 06:11:55;;;;;;;5.53;1.80;;;11.70;99.90;;;;;;4958280;28;20217;-86
2023/10/09 06:14:32;;;;;;;3.50;1.88;;;11.70;99.90;;;;;;4957157;29;20177;-85
2023/10/09 06:17:23;;;;;;;3.75;2.00;;;11.70;99.90;;;;;;4958022;28;20208;-90
2023/10/09 06:19:48;;;;;;;4.65;1.90;;;11.70;99.90;;;;;;4957234;29;20212;-95
2023/10/09 06:25:08;;;;;;;5.03;2.00;;;11.70;99.90;;;;;;4958347;29;20173;-86
2023/10/09 06:32:51;;;;;;;6.32;1.80;;;11.70;99.90;;;;;;4977309;28;20173;-85
2023/10/09 06:35:30;;;;;;;4.60;2.10;;;11.70;99.90;;;;;;4959814;28;20674;-87
2023/10/09 06:43:37;;;;;;;6.47;2.17;;;11.60;99.90;;;;;;4977319;28;20600;-86
2023/10/09 06:48:56;;;;;;;4.57;2.13;;;11.60;99.90;;;;;;4977254;28;20175;-85
2023/10/09 06:54:06;;;;;;;3.50;2.13;;;11.60;99.90;;;;;;4976734;28;20517;-87
2023/10/09 06:59:16;;;;;;;9.13;2.70;;;11.60;99.90;;;;;;4976955;28;20619;-89
2023/10/09 07:01:42;;;;;;;3.42;2.17;;;11.60;99.90;;;;;;4959084;28;20192;-88
2023/10/09 07:04:19;;;;;;;5.13;2.97;;;11.60;99.90;;;;;;4976697;28;20207;-91
2023/10/09 07:06:48;;;;;;;6.18;2.50;;;11.60;99.90;;;;;;4959357;28;20184;-84
2023/10/09 07:17:52;;;;;;;6.28;2.75;;;11.60;99.90;;;;;;4976279;28;20533;-84
2023/10/09 07:22:29;;;;;;;7.28;2.40;;;11.70;99.90;;;;;;4976708;28;20630;-86
2023/10/09 07:27:48;;;;;;;6.47;3.05;;;11.70;99.90;;;;;;4962239;28;20190;-87
2023/10/09 07:33:18;;;;;;;6.88;2.53;;;11.70;99.90;;;;;;4976335;28;20172;-85
2023/10/09 07:35:47;;;;;;;5.25;2.88;;;11.80;99.90;;;;;;4975575;28;20618;-88
2023/10/09 07:38:22;;;;;;;6.80;3.25;;;11.80;99.90;;;;;;4976135;28;20203;-88
2023/10/09 07:40:56;;;;;;;4.07;2.58;;;11.80;99.90;;;;;;4975920;28;20175;-87
2023/10/09 07:43:39;;;;;;;5.40;2.95;;;11.80;99.90;;;;;;4958685;28;20176;-86
2023/10/09 07:49:08;;;;;;;5.85;3.00;;;11.80;99.90;;;;;;4975896;28;20645;-85
2023/10/09 07:51:38;;;;;;;4.28;2.60;;;11.90;99.90;;;;;;4958400;28;20287;-84
2023/10/09 07:54:08;;;;;;;4.90;2.40;;;11.90;99.90;;;;;;4958407;28;20188;-84
2023/10/09 07:56:41;;;;;;;4.78;2.80;;;11.90;99.90;;;;;;4959220;28;20273;-93
2023/10/09 07:59:11;;;;;;;5.45;2.90;;;11.90;99.90;;;;;;4976771;28;20160;-92
2023/10/09 08:01:59;;;;;;;5.55;2.50;;;11.90;99.90;;;;;;4959141;28;20200;-91
2023/10/09 08:04:39;;;;;;;6.53;3.17;;;12.00;99.90;;;;;;4959245;28;20185;-91
2023/10/09 08:07:09;;;;;;;7.03;2.72;;;12.00;99.90;;;;;;4959409;28;20242;-90
2023/10/09 08:09:47;;;;;;;6.40;3.08;;;12.00;99.90;;;;;;4976290;28;20191;-88
2023/10/09 08:18:27;;;;;;;4.63;3.17;;;12.10;99.90;;;;;;4975818;28;20185;-85
2023/10/09 08:21:19;;;;;;;6.05;2.72;;;12.10;99.90;;;;;;4975184;28;20643;-85
2023/10/09 08:23:49;;;;;;;5.50;3.33;;;12.10;99.90;;;;;;4975294;28;20231;-85
2023/10/09 08:26:28;;;;;;;6.65;3.47;;;12.20;99.90;;;;;;4958185;28;20211;-83
2023/10/09 08:29:15;;;;;;;6.07;3.65;;;12.10;99.90;;;;;;4975459;28;20224;-85
2023/10/09 08:31:47;;;;;;;9.38;4.72;;;12.20;99.90;;;;;;4975048;28;20238;-84
2023/10/09 08:34:24;;;;;;;5.60;3.33;;;12.20;99.90;;;;;;4958199;28;20275;-85
2023/10/09 08:36:53;;;;;;;7.20;3.33;;;12.20;99.90;;;;;;4958212;28;20208;-89
2023/10/09 08:39:27;;;;;;;7.68;3.33;;;12.20;99.90;;;;;;4958425;28;20212;-83
2023/10/09 08:42:01;;;;;;;7.00;3.55;;;12.10;99.90;;;;;;4959226;28;20172;-90
2023/10/09 08:44:29;;;;;;;5.85;3.70;;;12.20;99.90;;;;;;4962136;28;20683;-88
2023/10/09 08:46:55;;;;;;;5.03;3.30;;;12.20;99.90;;;;;;4979002;28;20168;-85
2023/10/09 08:49:21;;;;;;;6.22;3.70;;;12.30;99.90;;;;;;4961807;28;20185;-85
2023/10/09 08:51:48;;;;;;;6.10;3.85;;;12.30;99.90;;;;;;4978941;28;20491;-83
2023/10/09 08:54:14;;;;;;;5.05;2.80;;;12.30;99.90;;;;;;4961709;28;20185;-87
2023/10/09 08:56:49;;;;;;;4.05;2.83;;;12.30;99.90;;;;;;4961693;28;20244;-84
2023/10/09 08:59:18;;;;;;;4.35;2.92;;;12.30;99.90;;;;;;4978910;28;20171;-83
2023/10/09 09:01:49;;;;;;;4.13;2.80;;;12.30;99.90;;;;;;4961662;28;20916;-84
2023/10/09 09:04:36;;;;;;;4.47;2.92;;;12.30;99.90;;;;;;4978894;28;20499;-85
2023/10/09 09:07:02;;;;;;;5.57;4.30;;;12.30;99.90;;;;;;4966661;28;20184;-90
2023/10/09 09:09:30;;;;;;;5.53;3.55;;;12.40;99.90;;;;;;4962324;28;20234;-91
2023/10/09 09:11:56;;;;;;;5.80;3.17;;;12.40;99.90;;;;;;4962184;28;20181;-89
2023/10/09 09:14:41;;;;;;;7.57;3.00;;;12.40;99.90;;;;;;4962245;28;20180;-92
2023/10/09 09:17:10;;;;;;;5.45;3.17;;;12.50;99.90;;;;;;4979103;28;20211;-91
2023/10/09 09:19:38;;;;;;;5.63;3.28;;;12.50;99.90;;;;;;4979468;28;20300;-91
2023/10/09 09:22:14;;;;;;;6.75;3.50;;;12.50;99.90;;;;;;4979329;28;20176;-91
2023/10/09 09:25:00;;;;;;;6.65;3.45;;;12.60;99.90;;;;;;4962264;28;20176;-90
2023/10/09 09:27:49;;;;;;;6.05;3.70;;;12.60;99.90;;;;;;4962140;28;20176;-91
2023/10/09 09:30:31;;;;;;;5.65;3.30;;;12.70;99.90;;;;;;4979006;28;20224;-89
2023/10/09 09:35:57;;;;;;;4.47;3.10;;;12.70;99.90;;;;;;4979323;28;20300;-91
2023/10/09 09:38:25;;;;;;;6.60;3.85;;;12.70;99.90;;;;;;4979154;28;20535;-91
2023/10/09 09:40:54;;;;;;;5.28;3.40;;;12.70;99.90;;;;;;4961787;28;20718;-91
2023/10/09 09:43:22;;;;;;;5.78;3.33;;;12.70;99.90;;;;;;4978919;28;20169;-91
2023/10/09 09:45:50;;;;;;;5.80;3.30;;;12.70;99.90;;;;;;4979066;28;20173;-89
2023/10/09 09:48:16;;;;;;;4.45;3.20;;;12.70;99.90;;;;;;4978904;28;20341;-92
2023/10/09 09:50:45;;;;;;;6.75;3.80;;;12.80;99.90;;;;;;4978924;28;20200;-91
2023/10/09 09:53:16;;;;;;;5.88;4.40;;;12.80;99.90;;;;;;4978623;28;20607;-85
2023/10/09 09:55:55;;;;;;;5.45;3.70;;;12.80;99.90;;;;;;4960495;28;20208;-84
2023/10/09 09:58:23;;;;;;;5.15;3.88;;;12.80;99.90;;;;;;4960450;28;20176;-84
2023/10/09 10:00:57;;;;;;;6.82;3.70;;;12.90;99.90;;;;;;4960234;28;20698;-84
2023/10/09 10:03:32;;;;;;;6.05;4.20;;;12.90;99.90;;;;;;4960081;28;20239;-83
2023/10/09 10:06:05;;;;;;;6.90;4.10;;;12.90;99.90;;;;;;4977721;28;20248;-84
2023/10/09 10:08:34;;;;;;;5.38;4.05;;;13.00;99.90;;;;;;4960192;28;20180;-85
2023/10/09 10:11:06;;;;;;;9.90;5.97;;;13.00;99.90;;;;;;4960190;28;20524;-83
2023/10/09 10:13:40;;;;;;;15.23;8.02;;;13.10;99.90;;;;;;4977458;28;20604;-83
2023/10/09 10:16:15;;;;;;;15.10;8.55;;;13.10;99.90;;;;;;4977258;28;20212;-82
2023/10/09 10:19:06;;;;;;;14.77;8.00;;;13.10;99.90;;;;;;4977147;28;20529;-83
2023/10/09 10:21:38;;;;;;;16.50;8.70;;;13.10;99.90;;;;;;4977355;28;20243;-83
2023/10/09 10:24:09;;;;;;;15.05;8.57;;;13.20;99.90;;;;;;4959726;28;20489;-83
2023/10/09 10:26:36;;;;;;;15.43;8.80;;;13.20;99.90;;;;;;4959791;28;20191;-84
2023/10/09 10:29:26;;;;;;;15.52;9.45;;;13.30;99.90;;;;;;4976983;28;20690;-83
2023/10/09 10:31:57;;;;;;;16.17;9.10;;;13.30;99.90;;;;;;4959307;28;20208;-82
2023/10/09 10:34:24;;;;;;;14.48;8.70;;;13.30;99.90;;;;;;4976998;28;20219;-86
2023/10/09 10:37:00;;;;;;;17.38;10.48;;;13.40;99.90;;;;;;4976788;28;20216;-83
2023/10/09 10:39:47;;;;;;;20.95;11.10;;;13.40;99.90;;;;;;4976870;28;20172;-83
2023/10/09 10:42:35;;;;;;;21.20;12.15;;;13.50;99.90;;;;;;4976308;28;20646;-82
2023/10/09 10:45:33;;;;;;;25.52;13.05;;;13.50;99.90;;;;;;4976308;28;20211;-83
2023/10/09 10:47:50;;;;;;;24.63;13.90;;;13.60;99.90;;;;;;4976257;28;20177;-83
2023/10/09 10:53:17;;;;;;;24.98;14.00;;;13.70;99.90;;;;;;4976894;28;20260;-82
2023/10/09 10:58:47;;;;;;;23.63;13.27;;;13.80;99.90;;;;;;4977046;28;20215;-85
2023/10/09 11:01:13;;;;;;;23.67;13.32;;;13.80;99.90;;;;;;4976682;28;20203;-84
2023/10/09 11:03:58;;;;;;;27.10;15.45;;;13.80;99.90;;;;;;4959235;28;20188;-86
2023/10/09 11:06:41;;;;;;;27.60;15.43;;;13.90;99.90;;;;;;4976788;28;20157;-87
2023/10/09 11:09:09;;;;;;;30.55;16.15;;;13.90;99.90;;;;;;4976738;28;20229;-85
2023/10/09 11:11:46;;;;;;;31.80;15.88;;;14.00;99.90;;;;;;4976600;28;20199;-83
2023/10/09 11:14:44;;;;;;;29.45;15.88;;;14.10;99.90;;;;;;4976634;28;20156;-86
2023/10/09 11:17:03;;;;;;;29.48;16.67;;;14.10;99.90;;;;;;4975590;28;20259;-84
2023/10/09 11:19:31;;;;;;;32.08;16.33;;;14.20;99.90;;;;;;4959198;28;20176;-88
2023/10/09 11:24:34;;;;;;;36.03;18.65;;;14.30;99.90;;;;;;4976573;28;20607;-83
2023/10/09 11:27:06;;;;;;;32.58;16.60;;;14.40;99.90;;;;;;4976154;28;20234;-86
2023/10/09 11:32:17;;;;;;;28.15;15.82;;;14.50;99.90;;;;;;4956876;29;20588;-84
2023/10/09 11:34:51;;;;;;;31.85;16.77;;;14.50;99.90;;;;;;4956868;29;20172;-86
2023/10/09 11:39:54;;;;;;;32.67;16.75;;;14.50;99.90;;;;;;4957322;29;20584;-89
2023/10/09 11:42:36;;;;;;;26.83;15.15;;;14.60;99.90;;;;;;4956693;29;20184;-86
2023/10/09 11:45:28;;;;;;;37.90;17.73;;;14.60;99.90;;;;;;4956848;29;20216;-84
2023/10/09 11:47:59;;;;;;;36.45;17.40;;;14.60;99.90;;;;;;4939236;29;20634;-86
2023/10/09 11:51:18;;;;;;;33.00;16.48;;;14.60;99.90;;;;;;4939867;29;20887;-86
2023/10/09 11:53:45;;;;;;;31.73;16.35;;;14.70;99.90;;;;;;4956296;29;20590;-83
2023/10/09 11:56:17;;;;;;;24.33;15.20;;;14.70;99.90;;;;;;4939461;29;20663;-84
2023/10/09 11:58:43;;;;;;;30.10;16.98;;;14.70;99.90;;;;;;4956524;29;20162;-83
2023/10/09 12:01:22;;;;;;;29.63;16.52;;;14.70;99.90;;;;;;4968820;28;20188;-86
2023/10/09 12:03:49;;;;;;;31.98;16.48;;;14.70;99.90;;;;;;4975667;28;20203;-85
2023/10/09 12:06:18;;;;;;;28.27;15.40;;;14.70;99.90;;;;;;4975851;28;20184;-83
2023/10/09 12:08:48;;;;;;;31.67;17.13;;;14.70;99.90;;;;;;4958707;28;20176;-86
2023/10/09 12:11:28;;;;;;;31.58;16.42;;;14.80;99.90;;;;;;4975742;28;20180;-85
2023/10/09 12:13:57;;;;;;;25.90;16.38;;;14.80;99.90;;;;;;4975626;28;20219;-84
2023/10/09 12:16:27;;;;;;;23.38;15.77;;;14.80;99.90;;;;;;4957498;28;20208;-87
2023/10/09 12:18:57;;;;;;;30.20;17.55;;;14.90;99.90;;;;;;4975562;28;20168;-89
2023/10/09 12:21:23;;;;;;;31.15;18.17;;;14.90;99.90;;;;;;4975701;28;20627;-82
2023/10/09 12:23:49;;;;;;;30.65;16.25;;;14.90;99.90;;;;;;4975634;28;20184;-89
2023/10/09 12:26:14;;;;;;;29.58;17.60;;;14.90;99.90;;;;;;4975665;28;20168;-84
2023/10/09 12:28:45;;;;;;;29.42;17.23;;;14.90;99.90;;;;;;4958307;28;20231;-82
2023/10/09 12:31:14;;;;;;;27.23;17.73;;;15.00;99.90;;;;;;4963137;28;20825;-82
2023/10/09 12:33:40;;;;;;;30.25;16.88;;;15.10;99.90;;;;;;4955961;29;20264;-82
2023/10/09 12:36:17;;;;;;;31.30;16.52;;;15.00;99.90;;;;;;4956189;29;20599;-82
2023/10/09 12:38:46;;;;;;;24.02;15.95;;;15.10;99.90;;;;;;4956220;29;20172;-82
2023/10/09 12:41:28;;;;;;;29.00;17.15;;;15.10;99.90;;;;;;4956265;29;20184;-85
2023/10/09 12:43:54;;;;;;;27.45;17.35;;;15.10;99.90;;;;;;4956286;29;20197;-87
2023/10/09 12:46:25;;;;;;;26.80;16.73;;;15.10;99.90;;;;;;4956157;29;20499;-82
2023/10/09 12:48:54;;;;;;;29.48;17.10;;;15.10;99.90;;;;;;4955967;29;20154;-83
2023/10/09 12:51:25;;;;;;;31.33;17.40;;;15.10;99.90;;;;;;4956182;29;20575;-82
2023/10/09 12:53:57;;;;;;;32.67;17.15;;;15.10;99.90;;;;;;4938844;29;20184;-83
2023/10/09 12:56:32;;;;;;;26.92;16.55;;;15.10;99.90;;;;;;4956130;29;20189;-83
2023/10/09 12:59:01;;;;;;;24.25;14.13;;;15.10;99.90;;;;;;4956006;29;20173;-84
2023/10/09 13:01:32;;;;;;;26.55;15.48;;;15.10;99.90;;;;;;4970620;28;20177;-82
2023/10/09 13:04:01;;;;;;;24.48;16.23;;;15.20;99.90;;;;;;4957766;28;20532;-83
2023/10/09 13:06:27;;;;;;;23.88;15.45;;;15.10;99.90;;;;;;4975404;28;20169;-85
2023/10/09 13:08:57;;;;;;;25.70;15.23;;;15.20;99.90;;;;;;4975330;28;20165;-83
2023/10/09 13:11:25;;;;;;;24.52;15.85;;;15.20;99.90;;;;;;4975757;28;20197;-90
2023/10/09 13:13:51;;;;;;;21.58;15.00;;;15.20;99.90;;;;;;4958322;28;20231;-85
2023/10/09 13:16:23;;;;;;;22.80;14.80;;;15.20;99.90;;;;;;4975500;28;20687;-85
2023/10/09 13:19:05;;;;;;;23.23;16.08;;;15.20;99.90;;;;;;4975260;28;20215;-86
2023/10/09 13:21:34;;;;;;;26.38;16.05;;;15.20;99.90;;;;;;4975436;28;20169;-87
2023/10/09 13:24:01;;;;;;;24.15;15.55;;;15.30;99.90;;;;;;4958088;28;20181;-87
2023/10/09 13:26:30;;;;;;;22.83;15.68;;;15.20;99.90;;;;;;4975430;28;20176;-83
2023/10/09 13:28:57;;;;;;;25.15;16.90;;;15.30;99.90;;;;;;4977786;28;20216;-85
2023/10/09 13:31:29;;;;;;;25.65;15.27;;;15.20;99.90;;;;;;4978896;28;20227;-87
2023/10/09 13:33:55;;;;;;;23.50;16.70;;;15.20;99.90;;;;;;4961960;28;20499;-81
2023/10/09 13:36:35;;;;;;;24.95;17.42;;;15.20;99.90;;;;;;4961307;28;20215;-89
2023/10/09 13:39:24;;;;;;;23.05;16.95;;;15.30;99.90;;;;;;4961631;28;20173;-85
2023/10/09 13:41:59;;;;;;;20.80;16.15;;;15.20;99.90;;;;;;4978581;28;20216;-86
2023/10/09 13:44:27;;;;;;;26.63;16.45;;;15.20;99.90;;;;;;4978683;28;20207;-85
2023/10/09 13:46:54;;;;;;;25.10;17.13;;;15.20;99.90;;;;;;4978584;28;20638;-89
2023/10/09 13:49:22;;;;;;;23.55;15.50;;;15.20;99.90;;;;;;4978295;28;20160;-91
2023/10/09 13:51:49;;;;;;;21.73;15.60;;;15.20;99.90;;;;;;4978319;28;20678;-83
2023/10/09 13:54:39;;;;;;;22.10;14.95;;;15.30;99.90;;;;;;4978321;28;20604;-82
2023/10/09 13:57:07;;;;;;;23.25;15.63;;;15.30;99.90;;;;;;4978211;28;20228;-86
2023/10/09 13:59:42;;;;;;;21.30;13.82;;;15.30;99.90;;;;;;4978136;28;20248;-85
2023/10/09 14:02:17;;;;;;;21.77;14.57;;;15.30;99.90;;;;;;4960510;28;20212;-90
2023/10/09 14:04:43;;;;;;;18.77;12.55;;;15.40;99.90;;;;;;4960909;28;20267;-86
2023/10/09 14:07:09;;;;;;;16.77;12.88;;;15.40;99.90;;;;;;4960739;28;20211;-92
2023/10/09 14:09:38;;;;;;;19.52;13.25;;;15.40;99.90;;;;;;4960888;28;20619;-82
2023/10/09 14:12:06;;;;;;;18.60;12.85;;;15.40;99.90;;;;;;4977844;28;20223;-87
2023/10/09 14:14:39;;;;;;;19.05;12.52;;;15.50;99.90;;;;;;4978006;28;20275;-88
2023/10/09 14:17:14;;;;;;;17.45;12.02;;;15.40;99.90;;;;;;4977748;28;20212;-83
2023/10/09 14:19:46;;;;;;;17.48;11.43;;;15.40;99.90;;;;;;4977782;28;20172;-82
2023/10/09 14:22:15;;;;;;;18.13;11.73;;;15.40;99.90;;;;;;4977696;28;20168;-83
2023/10/09 14:24:44;;;;;;;15.25;11.35;;;15.40;99.90;;;;;;4960185;28;20323;-83
2023/10/09 14:27:17;;;;;;;13.75;10.80;;;15.50;99.90;;;;;;4960024;28;20187;-82
2023/10/09 14:29:47;;;;;;;15.27;10.52;;;15.50;99.90;;;;;;4959745;28;20220;-83
2023/10/09 14:32:14;;;;;;;17.55;10.27;;;15.50;99.90;;;;;;4977061;28;20167;-82
2023/10/09 14:34:49;;;;;;;14.00;10.32;;;15.50;99.90;;;;;;4977403;28;20200;-84
2023/10/09 14:37:16;;;;;;;16.92;9.90;;;15.50;99.90;;;;;;4960061;28;20212;-84
2023/10/09 14:39:42;;;;;;;12.60;10.48;;;15.60;99.90;;;;;;4976501;28;20247;-83
2023/10/09 14:42:11;;;;;;;13.50;9.27;;;15.60;99.90;;;;;;4977139;28;20181;-86
2023/10/09 14:44:38;;;;;;;16.55;10.50;;;15.70;99.90;;;;;;4977018;28;20173;-82
2023/10/09 14:47:07;;;;;;;14.75;10.05;;;15.70;99.90;;;;;;4976973;28;20263;-87
2023/10/09 14:50:09;;;;;;;11.10;9.57;;;15.70;99.90;;;;;;4976769;28;20622;-82
2023/10/09 14:52:27;;;;;;;13.13;9.00;;;15.70;99.90;;;;;;4973653;28;20274;-85
2023/10/09 14:54:53;;;;;;;16.75;9.63;;;15.70;99.90;;;;;;4976752;28;20169;-85
2023/10/09 14:57:19;;;;;;;13.40;9.43;;;15.60;99.90;;;;;;4959677;28;20220;-87
2023/10/09 14:59:44;;;;;;;16.60;9.35;;;15.60;99.90;;;;;;4976854;28;20205;-90
2023/10/09 15:02:12;;;;;;;13.70;9.20;;;15.70;99.90;;;;;;4976478;28;20719;-81
2023/10/09 15:04:37;;;;;;;13.45;8.70;;;15.80;99.90;;;;;;4976272;28;20203;-81
2023/10/09 15:07:07;;;;;;;13.02;8.52;;;15.80;99.90;;;;;;4976555;28;20204;-89
2023/10/09 15:09:36;;;;;;;14.25;8.18;;;15.80;99.90;;;;;;4959749;28;20177;-90
2023/10/09 15:12:02;;;;;;;14.32;8.82;;;15.80;99.90;;;;;;4976936;28;20263;-89
2023/10/09 15:14:28;;;;;;;10.15;7.93;;;15.80;99.90;;;;;;4959297;28;20183;-87
2023/10/09 15:16:54;;;;;;;10.00;7.93;;;15.80;99.90;;;;;;4976391;28;20215;-85
2023/10/09 15:19:29;;;;;;;10.32;7.85;;;15.90;99.90;;;;;;4976032;28;20212;-83
2023/10/09 15:21:55;;;;;;;11.88;7.50;;;15.80;99.90;;;;;;4958905;28;20521;-82
2023/10/09 15:24:21;;;;;;;10.50;7.97;;;15.80;99.90;;;;;;4976137;28;20164;-82
2023/10/09 15:26:53;;;;;;;8.57;6.53;;;15.80;99.90;;;;;;4976458;28;20251;-82
2023/10/09 15:29:23;;;;;;;12.27;7.28;;;15.80;99.90;;;;;;4959574;28;20228;-85
2023/10/09 15:31:51;;;;;;;8.80;6.00;;;15.80;99.90;;;;;;4975985;28;20181;-84
2023/10/09 15:34:18;;;;;;;8.13;6.10;;;15.80;99.90;;;;;;4975824;28;20173;-83
2023/10/09 15:36:47;;;;;;;8.88;5.85;;;15.90;99.90;;;;;;4975909;28;20201;-84
2023/10/09 15:39:13;;;;;;;9.80;6.03;;;15.90;99.90;;;;;;4975912;28;20624;-83
2023/10/09 15:41:39;;;;;;;13.68;9.45;;;15.90;99.90;;;;;;4958754;28;20183;-83
2023/10/09 15:44:06;;;;;;;11.45;6.80;;;15.90;99.90;;;;;;4975710;28;20608;-82
2023/10/09 15:46:34;;;;;;;6.53;4.70;;;16.00;99.90;;;;;;4975753;28;20327;-84
2023/10/09 15:49:00;;;;;;;8.43;5.38;;;16.00;99.90;;;;;;4975581;28;20173;-82
2023/10/09 15:51:28;;;;;;;8.35;4.22;;;16.10;99.90;;;;;;4975620;28;20635;-82
2023/10/09 15:53:53;;;;;;;8.25;4.53;;;16.00;99.90;;;;;;4975711;28;20184;-84